Time;durP1;ratioP1;P1;durP2;ratioP2;P2;SDS_P1;SDS_P2;PMS_P1;PMS_P2;Temp;Humidity;BMP_temperature;BMP_pressure;BME280_temperature;BME280_humidity;BME280_pressure;Samples;Min_cycle;Max_cycle;Signal;HPM_P1;HPM_P2
2024/03/10 00:01:30;;;;;;;48.90;35.40;;;;;;;5.46;100.00;98421.12;108894;1260;59154;-72
2024/03/10 00:03:58;;;;;;;49.10;35.50;;;;;;;5.44;100.00;98423.13;108896;1260;65859;-72
2024/03/10 00:06:24;;;;;;;47.50;34.30;;;;;;;5.43;100.00;98421.44;108933;1260;59309;-72
2024/03/10 00:08:53;;;;;;;46.90;33.60;;;;;;;5.42;100.00;98425.02;108875;1260;64060;-72
2024/03/10 00:11:20;;;;;;;48.50;34.50;;;;;;;5.41;100.00;98424.53;108891;1260;59266;-72
2024/03/10 00:13:46;;;;;;;49.50;34.80;;;;;;;5.43;100.00;98428.13;108916;1260;58987;-72
2024/03/10 00:16:13;;;;;;;52.90;35.80;;;;;;;5.44;100.00;98428.08;108921;1260;66051;-73
2024/03/10 00:18:39;;;;;;;51.10;34.30;;;;;;;5.45;100.00;98425.71;108898;1260;59034;-72
2024/03/10 00:21:06;;;;;;;49.50;36.30;;;;;;;5.47;100.00;98422.61;108907;1260;64118;-72
2024/03/10 00:23:33;;;;;;;51.00;34.70;;;;;;;5.49;100.00;98421.30;108894;1260;59040;-72
2024/03/10 00:25:59;;;;;;;49.80;35.30;;;;;;;5.50;100.00;98423.32;108891;1260;59093;-72
2024/03/10 00:28:26;;;;;;;52.60;36.30;;;;;;;5.52;100.00;98419.73;108939;1259;66141;-72
2024/03/10 00:30:54;;;;;;;51.40;37.00;;;;;;;5.53;100.00;98412.27;108920;1260;59051;-72
2024/03/10 00:33:20;;;;;;;51.70;36.90;;;;;;;5.53;100.00;98409.29;108732;1260;62656;-71
2024/03/10 00:35:47;;;;;;;52.50;37.40;;;;;;;5.52;100.00;98407.39;108853;1260;58972;-71
2024/03/10 00:38:14;;;;;;;51.50;36.80;;;;;;;5.50;100.00;98402.52;108911;1260;59009;-72
2024/03/10 00:40:40;;;;;;;51.00;36.30;;;;;;;5.50;100.00;98403.43;108918;1259;65715;-71
2024/03/10 00:43:07;;;;;;;55.30;37.30;;;;;;;5.49;100.00;98398.73;108873;1260;60137;-71
2024/03/10 00:45:33;;;;;;;48.60;35.40;;;;;;;5.48;100.00;98397.03;108884;1260;59032;-72
2024/03/10 00:47:59;;;;;;;52.30;36.40;;;;;;;5.46;100.00;98398.34;108892;1260;59100;-71
2024/03/10 00:50:26;;;;;;;50.80;36.30;;;;;;;5.45;100.00;98401.27;108923;1260;59109;-72
2024/03/10 00:52:53;;;;;;;50.30;35.50;;;;;;;5.42;100.00;98403.00;108925;1260;59440;-71
2024/03/10 00:55:21;;;;;;;49.90;35.10;;;;;;;5.40;100.00;98398.17;108914;1260;60191;-72
2024/03/10 00:57:47;;;;;;;51.70;35.90;;;;;;;5.38;100.00;98398.25;108881;1260;62733;-72
2024/03/10 01:00:14;;;;;;;51.00;35.20;;;;;;;5.38;100.00;98400.96;108891;1260;58994;-73
2024/03/10 01:02:41;;;;;;;49.50;34.90;;;;;;;5.36;100.00;98397.85;108876;1261;58988;-72
2024/03/10 01:05:07;;;;;;;48.50;33.60;;;;;;;5.35;100.00;98397.23;108916;1260;66020;-72
2024/03/10 01:07:34;;;;;;;47.60;34.20;;;;;;;5.33;100.00;98389.05;108892;1261;60267;-72
2024/03/10 01:10:01;;;;;;;47.60;33.40;;;;;;;5.31;100.00;98389.86;108886;1260;59308;-72
2024/03/10 01:12:28;;;;;;;48.50;33.10;;;;;;;5.28;100.00;98391.45;108889;1260;59384;-72
2024/03/10 01:14:55;;;;;;;45.20;34.60;;;;;;;5.24;100.00;98387.39;108887;1260;60456;-73
2024/03/10 01:17:22;;;;;;;50.80;36.00;;;;;;;5.21;100.00;98385.81;108919;1260;66152;-72
2024/03/10 01:19:48;;;;;;;49.20;35.10;;;;;;;5.19;100.00;98388.08;108928;1260;58994;-72
2024/03/10 01:22:17;;;;;;;49.90;33.80;;;;;;;5.17;100.00;98385.02;108872;1260;59093;-72
2024/03/10 01:24:44;;;;;;;50.60;35.20;;;;;;;5.15;100.00;98383.86;108882;1260;59106;-72
2024/03/10 01:27:10;;;;;;;50.30;35.40;;;;;;;5.13;100.00;98380.14;108929;1260;59234;-73
2024/03/10 01:29:37;;;;;;;46.80;34.10;;;;;;;5.10;100.00;98374.64;108886;1259;66007;-72
2024/03/10 01:32:04;;;;;;;47.00;32.00;;;;;;;5.08;100.00;98371.05;108895;1260;60164;-72
2024/03/10 01:34:30;;;;;;;47.20;32.00;;;;;;;5.05;100.00;98370.64;108717;1260;64000;-72
2024/03/10 01:36:57;;;;;;;43.90;31.90;;;;;;;5.03;100.00;98366.55;108883;1260;59253;-72
2024/03/10 01:39:24;;;;;;;48.30;33.90;;;;;;;5.01;100.00;98365.79;108761;1260;59236;-72
2024/03/10 01:41:53;;;;;;;47.70;32.30;;;;;;;4.99;100.00;98360.28;108900;1260;66103;-72
2024/03/10 01:44:19;;;;;;;46.90;33.70;;;;;;;4.96;100.00;98355.31;108901;1260;59004;-73
2024/03/10 01:46:47;;;;;;;49.60;32.50;;;;;;;4.94;100.00;98357.76;108901;1260;59477;-72
2024/03/10 01:49:14;;;;;;;47.00;34.20;;;;;;;4.90;100.00;98350.94;108928;1260;59034;-72
2024/03/10 01:51:41;;;;;;;45.90;32.50;;;;;;;4.87;100.00;98349.15;108891;1260;59604;-72
2024/03/10 01:54:11;;;;;;;48.30;33.30;;;;;;;4.83;100.00;98351.28;108898;1260;64895;-72
2024/03/10 01:56:39;;;;;;;49.10;33.20;;;;;;;4.79;100.00;98346.92;108902;1260;59604;-72
2024/03/10 01:59:07;;;;;;;44.90;33.00;;;;;;;4.74;100.00;98345.05;108884;1260;62892;-72
2024/03/10 02:01:35;;;;;;;48.30;33.20;;;;;;;4.72;100.00;98344.31;108921;1259;59335;-72
2024/03/10 02:04:03;;;;;;;48.60;33.40;;;;;;;4.69;100.00;98343.41;108898;1260;59039;-72
2024/03/10 02:06:30;;;;;;;47.50;32.70;;;;;;;4.66;100.00;98337.24;108924;1260;66030;-72
2024/03/10 02:08:57;;;;;;;44.10;32.70;;;;;;;4.65;100.00;98331.15;108901;1260;60304;-72
2024/03/10 02:11:24;;;;;;;48.40;32.10;;;;;;;4.63;100.00;98332.27;108904;1260;64174;-72
2024/03/10 02:13:50;;;;;;;49.20;35.00;;;;;;;4.61;100.00;98330.60;108880;1260;59319;-72
2024/03/10 02:16:17;;;;;;;50.30;34.50;;;;;;;4.60;100.00;98325.94;108899;1260;59062;-72
2024/03/10 02:18:43;;;;;;;48.80;32.70;;;;;;;4.57;100.00;98323.09;108900;1260;59733;-72
2024/03/10 02:21:11;;;;;;;50.60;35.50;;;;;;;4.54;100.00;98320.63;108921;1259;59265;-72
2024/03/10 02:24:11;;;;;;;48.40;34.70;;;;;;;4.51;100.00;98318.83;108882;1260;64106;-72
2024/03/10 02:26:46;;;;;;;50.80;35.40;;;;;;;4.48;100.00;98312.55;108891;1259;58943;-72
2024/03/10 02:29:20;;;;;;;47.50;33.90;;;;;;;4.44;100.00;98311.48;108745;1260;59075;-72
2024/03/10 02:48:23;;;;;;;49.40;35.20;;;;;;;4.28;100.00;98304.23;108903;1260;59038;-72
2024/03/10 02:50:50;;;;;;;51.00;36.70;;;;;;;4.26;100.00;98302.40;108903;1259;62909;-72
2024/03/10 02:53:16;;;;;;;53.60;36.50;;;;;;;4.24;100.00;98300.08;108816;1260;59119;-72
2024/03/10 02:55:44;;;;;;;54.30;36.40;;;;;;;4.21;100.00;98300.74;108887;1260;59431;-72
2024/03/10 02:58:10;;;;;;;55.00;37.70;;;;;;;4.18;100.00;98297.73;108908;1259;64806;-73
2024/03/10 03:00:38;;;;;;;56.10;39.50;;;;;;;4.16;100.00;98294.86;108913;1260;58980;-72
2024/03/10 03:03:13;;;;;;;56.40;38.30;;;;;;;4.13;100.00;98290.23;108858;1259;63753;-73
2024/03/10 03:05:40;;;;;;;56.90;39.40;;;;;;;4.10;100.00;98289.88;108878;1259;59019;-73
2024/03/10 03:08:07;;;;;;;51.90;35.40;;;;;;;4.07;100.00;98290.55;108901;1260;59188;-73
2024/03/10 03:10:34;;;;;;;53.60;37.50;;;;;;;4.06;100.00;98283.26;108714;1260;67164;-72
2024/03/10 03:13:01;;;;;;;56.00;38.60;;;;;;;4.04;100.00;98280.34;108935;1259;60164;-72
2024/03/10 03:15:27;;;;;;;58.30;39.70;;;;;;;4.03;100.00;98277.95;108893;1260;64072;-72
2024/03/10 03:17:54;;;;;;;57.70;41.30;;;;;;;4.02;100.00;98275.56;108883;1259;59786;-72
2024/03/10 03:20:21;;;;;;;55.10;38.80;;;;;;;4.00;100.00;98277.03;108926;1259;59204;-72
2024/03/10 03:22:48;;;;;;;55.50;37.50;;;;;;;4.00;100.00;98277.42;108730;1260;66155;-72
2024/03/10 03:25:18;;;;;;;51.10;35.50;;;;;;;3.98;100.00;98278.02;108890;1260;59097;-72
2024/03/10 03:27:47;;;;;;;50.10;35.90;;;;;;;3.95;100.00;98274.64;108881;1260;64059;-72
2024/03/10 03:30:16;;;;;;;55.90;38.30;;;;;;;3.93;100.00;98276.36;108891;1259;59436;-72
2024/03/10 03:32:42;;;;;;;58.30;39.20;;;;;;;3.91;100.00;98275.55;108899;1259;59102;-72
2024/03/10 03:35:11;;;;;;;55.70;37.50;;;;;;;3.91;100.00;98273.47;108885;1259;65882;-72
2024/03/10 03:37:38;;;;;;;52.60;37.00;;;;;;;3.91;100.00;98272.27;108879;1259;60104;-72
2024/03/10 03:40:09;;;;;;;59.80;38.60;;;;;;;3.90;100.00;98270.52;108904;1260;63798;-72
2024/03/10 03:42:35;;;;;;;54.80;38.60;;;;;;;3.91;100.00;98268.03;108889;1259;59060;-72
2024/03/10 03:45:04;;;;;;;54.20;35.40;;;;;;;3.92;100.00;98269.73;108904;1259;58953;-73
2024/03/10 03:47:31;;;;;;;56.10;39.10;;;;;;;3.91;100.00;98273.46;108873;1259;64758;-72
2024/03/10 03:49:58;;;;;;;56.20;38.10;;;;;;;3.91;100.00;98272.38;108729;1260;60149;-72
2024/03/10 03:52:25;;;;;;;58.00;39.10;;;;;;;3.92;100.00;98271.66;108862;1260;64054;-73
2024/03/10 03:54:51;;;;;;;56.70;37.60;;;;;;;3.92;100.00;98267.61;108894;1260;59060;-73
2024/03/10 03:57:19;;;;;;;55.30;39.00;;;;;;;3.92;100.00;98267.97;108882;1259;59069;-73
2024/03/10 03:59:46;;;;;;;54.50;37.70;;;;;;;3.91;100.00;98265.36;108890;1260;65763;-72
2024/03/10 04:02:12;;;;;;;50.40;34.50;;;;;;;3.90;100.00;98261.06;108911;1259;59026;-73
2024/03/10 04:04:40;;;;;;;52.30;36.50;;;;;;;3.88;100.00;98253.95;108899;1259;59109;-73
2024/03/10 04:07:06;;;;;;;51.20;33.90;;;;;;;3.88;100.00;98253.41;108874;1260;59017;-72
2024/03/10 04:09:34;;;;;;;54.20;35.30;;;;;;;3.88;100.00;98255.16;108916;1260;59345;-72
2024/03/10 04:12:00;;;;;;;48.20;34.10;;;;;;;3.88;100.00;98256.73;108920;1260;64791;-73
2024/03/10 04:14:27;;;;;;;51.10;35.60;;;;;;;3.89;100.00;98253.86;108926;1260;59047;-73
2024/03/10 04:16:54;;;;;;;49.30;34.00;;;;;;;3.89;100.00;98261.43;108853;1260;73918;-71
2024/03/10 04:19:21;;;;;;;51.50;35.00;;;;;;;3.88;100.00;98257.30;108678;1260;59428;-71
2024/03/10 04:21:48;;;;;;;51.30;34.60;;;;;;;3.87;100.00;98260.68;108909;1260;59043;-71
2024/03/10 04:24:15;;;;;;;50.80;34.60;;;;;;;3.86;100.00;98262.29;108946;1260;65863;-72
2024/03/10 04:26:42;;;;;;;50.80;33.70;;;;;;;3.85;100.00;98258.48;108903;1260;59283;-71
2024/03/10 04:29:10;;;;;;;48.70;31.90;;;;;;;3.83;100.00;98255.93;108888;1260;62580;-71
2024/03/10 04:31:37;;;;;;;48.00;33.30;;;;;;;3.81;100.00;98255.18;108916;1260;59356;-72
2024/03/10 04:34:03;;;;;;;48.00;32.60;;;;;;;3.79;100.00;98256.17;108921;1260;59118;-72
2024/03/10 04:36:30;;;;;;;50.30;32.80;;;;;;;3.78;100.00;98254.66;108918;1260;58975;-72
2024/03/10 04:38:57;;;;;;;46.20;33.10;;;;;;;3.75;100.00;98255.33;108904;1260;59854;-72
2024/03/10 04:41:23;;;;;;;47.90;34.40;;;;;;;3.72;100.00;98258.45;108742;1260;65058;-72
2024/03/10 04:43:51;;;;;;;46.80;31.40;;;;;;;3.69;100.00;98255.95;108702;1260;59020;-72
2024/03/10 04:46:19;;;;;;;47.80;33.80;;;;;;;3.66;100.00;98261.20;108896;1260;59034;-72
2024/03/10 04:48:46;;;;;;;50.50;34.40;;;;;;;3.62;100.00;98247.52;108904;1260;64546;-73
2024/03/10 04:51:13;;;;;;;50.90;33.60;;;;;;;3.60;100.00;98246.62;108907;1260;60040;-72
2024/03/10 04:53:42;;;;;;;50.10;35.40;;;;;;;3.56;100.00;98251.17;108880;1260;62859;-73
2024/03/10 04:56:12;;;;;;;48.00;33.00;;;;;;;3.51;100.00;98251.23;108881;1260;58961;-72
2024/03/10 04:58:42;;;;;;;50.60;34.60;;;;;;;3.48;100.00;98250.35;108938;1260;59223;-72
2024/03/10 05:01:09;;;;;;;48.70;34.20;;;;;;;3.45;100.00;98244.73;108929;1260;67354;-72
2024/03/10 05:03:37;;;;;;;51.70;34.80;;;;;;;3.42;100.00;98247.82;108916;1260;60212;-72
2024/03/10 05:06:05;;;;;;;54.90;36.00;;;;;;;3.41;100.00;98251.95;108903;1260;62880;-72
2024/03/10 05:08:31;;;;;;;53.20;35.90;;;;;;;3.39;100.00;98255.73;108911;1260;59216;-73
2024/03/10 05:10:59;;;;;;;54.20;34.90;;;;;;;3.39;100.00;98255.73;108902;1260;59091;-72
2024/03/10 05:13:26;;;;;;;55.90;35.70;;;;;;;3.40;100.00;98254.60;108721;1260;65742;-72
2024/03/10 05:15:52;;;;;;;50.10;34.70;;;;;;;3.43;100.00;98262.39;108911;1260;61111;-72
2024/03/10 05:18:19;;;;;;;52.20;35.10;;;;;;;3.45;100.00;98263.30;108896;1260;59324;-72
2024/03/10 05:20:45;;;;;;;51.60;33.70;;;;;;;3.47;100.00;98260.39;108913;1260;59365;-72
2024/03/10 05:23:12;;;;;;;50.90;34.30;;;;;;;3.50;100.00;98259.91;108903;1260;59017;-72
2024/03/10 05:25:39;;;;;;;55.00;36.70;;;;;;;3.52;100.00;98262.08;108911;1260;64729;-72
2024/03/10 05:28:05;;;;;;;52.60;35.80;;;;;;;3.55;100.00;98266.02;108914;1260;60292;-72
2024/03/10 05:30:32;;;;;;;51.70;35.80;;;;;;;3.58;100.00;98263.56;108901;1260;59065;-72
2024/03/10 05:32:58;;;;;;;54.00;36.40;;;;;;;3.63;100.00;98262.95;108895;1260;59035;-72
2024/03/10 05:35:25;;;;;;;47.80;33.60;;;;;;;3.68;100.00;98267.27;108898;1260;59396;-72
2024/03/10 05:37:51;;;;;;;50.70;34.30;;;;;;;3.73;100.00;98266.14;108913;1260;59093;-73
2024/03/10 05:40:18;;;;;;;50.90;35.80;;;;;;;3.79;100.00;98265.48;108903;1260;59318;-71
2024/03/10 05:42:45;;;;;;;49.30;34.70;;;;;;;3.85;100.00;98269.55;108898;1260;63372;-71
2024/03/10 05:45:12;;;;;;;49.20;35.10;;;;;;;3.90;100.00;98268.05;108735;1260;59137;-72
2024/03/10 05:47:38;;;;;;;46.10;33.80;;;;;;;3.97;100.00;98271.06;108917;1260;58926;-71
2024/03/10 05:50:06;;;;;;;50.20;34.90;;;;;;;4.04;100.00;98274.91;108905;1260;59556;-71
2024/03/10 05:52:33;;;;;;;46.80;34.30;;;;;;;4.10;100.00;98269.30;108902;1260;59294;-72
2024/03/10 05:55:00;;;;;;;49.80;34.80;;;;;;;4.19;100.00;98275.55;108868;1260;62829;-72
2024/03/10 05:57:26;;;;;;;48.90;32.20;;;;;;;4.24;100.00;98270.54;108905;1260;58964;-72
2024/03/10 05:59:54;;;;;;;45.40;32.40;;;;;;;4.27;100.00;98265.42;108907;1260;59223;-72
2024/03/10 06:02:20;;;;;;;46.20;32.90;;;;;;;4.29;100.00;98260.03;108910;1259;66112;-72
2024/03/10 06:04:47;;;;;;;50.70;33.80;;;;;;;4.30;100.00;98258.39;108934;1259;60158;-72
2024/03/10 06:07:13;;;;;;;50.90;34.60;;;;;;;4.32;100.00;98255.84;108916;1259;59057;-72
2024/03/10 06:09:40;;;;;;;45.60;31.50;;;;;;;4.37;100.00;98253.11;108898;1260;58956;-72
2024/03/10 06:12:06;;;;;;;47.40;33.30;;;;;;;4.41;100.00;98244.31;108905;1260;59058;-71
2024/03/10 06:14:33;;;;;;;41.90;32.40;;;;;;;4.44;100.00;98240.45;108933;1259;64858;-72
2024/03/10 06:17:00;;;;;;;46.40;31.40;;;;;;;4.48;100.00;98238.10;108898;1260;59088;-72
2024/03/10 06:27:42;;;;;;;41.50;29.90;;;;;;;4.70;100.00;98235.52;108909;1260;64724;-73
2024/03/10 06:30:10;;;;;;;42.50;30.70;;;;;;;4.75;100.00;98238.74;108911;1260;59232;-72
2024/03/10 06:32:38;;;;;;;43.50;30.90;;;;;;;4.82;100.00;98240.44;108914;1260;62822;-72
2024/03/10 06:35:06;;;;;;;42.20;30.40;;;;;;;4.89;100.00;98236.22;108908;1259;59034;-72
2024/03/10 06:37:35;;;;;;;41.20;30.30;;;;;;;4.93;100.00;98234.56;108932;1259;59080;-72
2024/03/10 06:40:03;;;;;;;42.10;30.80;;;;;;;4.98;100.00;98237.66;108958;1259;65740;-72
2024/03/10 06:42:30;;;;;;;44.60;32.00;;;;;;;5.02;100.00;98234.94;108934;1260;59243;-76
2024/03/10 06:44:56;;;;;;;40.30;32.30;;;;;;;5.07;100.00;98237.45;108888;1259;64052;-74
2024/03/10 06:47:23;;;;;;;40.90;30.30;;;;;;;5.13;100.00;98237.14;108896;1259;59034;-71
2024/03/10 06:49:50;;;;;;;39.40;28.50;;;;;;;5.19;100.00;98234.48;108923;1259;58963;-71
2024/03/10 06:52:17;;;;;;;42.70;32.80;;;;;;;5.27;100.00;98234.04;108755;1260;64536;-71
2024/03/10 06:54:44;;;;;;;37.90;29.50;;;;;;;5.36;100.00;98234.05;108919;1260;60234;-71
2024/03/10 06:57:10;;;;;;;43.30;32.60;;;;;;;5.46;100.00;98234.50;108898;1260;59110;-71
2024/03/10 06:59:37;;;;;;;38.20;28.30;;;;;;;5.56;100.00;98228.11;108876;1260;59427;-71
2024/03/10 07:02:04;;;;;;;37.30;27.90;;;;;;;5.65;100.00;98224.23;108928;1259;59051;-71
2024/03/10 07:04:32;;;;;;;35.30;27.00;;;;;;;5.69;100.00;98218.52;108928;1259;64494;-70
2024/03/10 07:06:59;;;;;;;34.50;28.00;;;;;;;5.73;100.00;98215.50;108776;1260;59141;-71
2024/03/10 07:09:26;;;;;;;34.80;26.60;;;;;;;5.76;100.00;98214.23;108909;1260;62775;-71
2024/03/10 07:11:53;;;;;;;36.10;27.60;;;;;;;5.78;100.00;98214.64;108868;1259;58938;-71
2024/03/10 07:14:20;;;;;;;36.10;27.00;;;;;;;5.80;100.00;98216.52;108894;1259;59462;-71
2024/03/10 07:16:47;;;;;;;35.70;27.20;;;;;;;5.77;100.00;98207.65;108902;1260;65695;-71
2024/03/10 07:19:17;;;;;;;38.20;27.90;;;;;;;5.75;100.00;98207.46;108914;1260;59527;-72
2024/03/10 07:21:44;;;;;;;37.90;26.90;;;;;;;5.72;100.00;98206.77;108864;1259;63755;-71
2024/03/10 07:24:10;;;;;;;32.40;25.10;;;;;;;5.70;100.00;98201.55;108865;1263;58940;-71
2024/03/10 07:26:37;;;;;;;33.50;26.40;;;;;;;5.77;100.00;98203.84;108875;1260;58969;-71
2024/03/10 07:29:03;;;;;;;33.00;24.80;;;;;;;5.86;100.00;98199.70;108904;1260;65698;-71
2024/03/10 07:31:30;;;;;;;34.30;25.80;;;;;;;6.01;100.00;98200.80;108912;1259;59279;-71
2024/03/10 07:33:56;;;;;;;34.60;25.90;;;;;;;6.15;100.00;98201.50;108929;1260;59406;-71
2024/03/10 07:36:23;;;;;;;30.50;24.80;;;;;;;6.25;100.00;98192.59;108892;1259;58957;-71
2024/03/10 07:38:51;;;;;;;32.10;26.20;;;;;;;6.32;100.00;98185.66;108900;1260;59020;-71
2024/03/10 07:41:19;;;;;;;30.50;24.50;;;;;;;6.45;100.00;98188.52;108897;1259;66089;-71
2024/03/10 07:43:45;;;;;;;33.70;25.90;;;;;;;6.61;100.00;98190.52;108753;1260;60150;-71
2024/03/10 07:46:11;;;;;;;35.60;27.00;;;;;;;6.77;100.00;98191.09;108905;1259;59000;-71
2024/03/10 07:48:38;;;;;;;35.20;27.40;;;;;;;6.91;100.00;98189.49;108883;1260;58991;-72
2024/03/10 07:51:04;;;;;;;35.00;25.70;;;;;;;7.03;100.00;98185.34;108899;1260;59119;-71
2024/03/10 07:53:31;;;;;;;32.10;25.80;;;;;;;7.11;100.00;98184.14;108902;1259;59540;-71
2024/03/10 07:56:17;;;;;;;34.40;26.30;;;;;;;7.14;100.00;98180.23;108842;1260;59092;-78
2024/03/10 07:58:44;;;;;;;60.20;40.90;;;;;;;7.21;100.00;98180.77;108682;1263;62877;-77
2024/03/10 08:01:10;;;;;;;42.20;32.80;;;;;;;7.34;100.00;98179.24;108740;1263;59272;-73
2024/03/10 08:03:37;;;;;;;34.20;27.70;;;;;;;7.47;100.00;98180.64;108739;1263;59072;-72
2024/03/10 08:06:04;;;;;;;32.70;25.30;;;;;;;7.55;100.00;98179.43;108725;1263;66107;-72
2024/03/10 08:08:30;;;;;;;31.70;25.10;;;;;;;7.53;100.00;98181.14;108732;1263;61299;-73
2024/03/10 08:10:57;;;;;;;32.10;25.80;;;;;;;7.55;100.00;98178.33;108711;1263;59094;-72
2024/03/10 08:13:23;;;;;;;30.70;24.40;;;;;;;7.60;100.00;98173.74;108703;1263;59054;-71
2024/03/10 08:15:50;;;;;;;27.20;22.30;;;;;;;7.67;100.00;98171.86;108717;1263;59018;-71
2024/03/10 08:18:16;;;;;;;25.70;20.30;;;;;;;7.77;100.00;98166.77;108740;1263;59118;-73
2024/03/10 08:20:43;;;;;;;23.30;19.90;;;;;;;7.83;100.00;98164.92;108739;1263;69837;-71
2024/03/10 08:23:10;;;;;;;26.30;21.30;;;;;;;7.86;100.00;98172.88;108703;1263;63900;-72
2024/03/10 08:25:36;;;;;;;27.90;22.40;;;;;;;7.89;100.00;98166.62;108714;1263;58968;-72
2024/03/10 08:28:04;;;;;;;25.90;20.30;;;;;;;7.99;100.00;98164.37;108744;1263;58962;-72
2024/03/10 08:30:31;;;;;;;29.30;22.40;;;;;;;8.12;100.00;98159.37;108861;1260;65785;-72
2024/03/10 08:32:58;;;;;;;25.60;21.00;;;;;;;8.23;100.00;98162.34;108936;1259;59388;-72
2024/03/10 08:35:25;;;;;;;27.10;21.60;;;;;;;8.30;100.00;98162.74;108900;1260;64447;-72
2024/03/10 08:37:52;;;;;;;30.50;23.50;;;;;;;8.44;100.00;98163.52;108918;1260;59055;-72
2024/03/10 08:40:18;;;;;;;28.10;22.80;;;;;;;8.52;100.00;98157.64;108880;1260;58892;-73
2024/03/10 08:42:45;;;;;;;27.70;22.70;;;;;;;8.64;100.00;98156.05;108913;1260;59543;-72
2024/03/10 08:45:12;;;;;;;30.30;22.80;;;;;;;8.75;100.00;98158.60;108927;1259;60559;-72
2024/03/10 08:47:40;;;;;;;25.40;21.50;;;;;;;8.90;100.00;98151.88;108929;1260;64081;-72
2024/03/10 08:50:09;;;;;;;27.70;22.50;;;;;;;9.12;100.00;98150.25;108894;1260;58997;-70
2024/03/10 08:52:36;;;;;;;27.60;22.30;;;;;;;9.29;100.00;98142.27;108935;1260;58968;-73
2024/03/10 08:55:05;;;;;;;27.20;21.90;;;;;;;9.22;100.00;98141.29;108925;1259;65079;-72
2024/03/10 08:57:33;;;;;;;25.50;21.50;;;;;;;9.20;100.00;98130.48;108842;1260;59893;-71
2024/03/10 09:00:02;;;;;;;27.40;20.80;;;;;;;9.22;100.00;98134.96;108894;1260;64149;-72
2024/03/10 09:02:29;;;;;;;25.60;21.10;;;;;;;9.19;100.00;98140.86;108782;1260;59389;-72
2024/03/10 09:04:56;;;;;;;26.50;21.90;;;;;;;9.15;100.00;98142.73;108900;1259;59269;-72
2024/03/10 09:07:23;;;;;;;26.40;21.50;;;;;;;9.16;100.00;98146.02;108921;1259;66010;-72
2024/03/10 09:09:49;;;;;;;23.10;19.20;;;;;;;9.22;100.00;98146.10;108933;1259;60129;-72
2024/03/10 09:12:17;;;;;;;23.70;19.90;;;;;;;9.32;100.00;98143.29;108920;1260;58908;-71
2024/03/10 09:14:43;;;;;;;20.00;17.50;;;;;;;9.43;100.00;98142.40;108827;1260;59682;-72
2024/03/10 09:17:10;;;;;;;24.90;18.70;;;;;;;9.56;100.00;98135.02;108780;1260;59063;-72
2024/03/10 09:19:37;;;;;;;24.80;19.60;;;;;;;9.67;100.00;98135.98;108948;1260;66118;-72
2024/03/10 09:22:06;;;;;;;24.00;19.40;;;;;;;9.74;100.00;98129.61;108930;1259;59732;-72
2024/03/10 09:24:32;;;;;;;23.90;19.20;;;;;;;9.79;100.00;98126.71;108931;1260;63948;-72
2024/03/10 09:26:59;;;;;;;22.60;19.00;;;;;;;9.86;100.00;98134.15;108864;1260;59280;-71
2024/03/10 09:29:26;;;;;;;22.60;18.40;;;;;;;9.88;100.00;98140.14;108912;1260;59837;-73
2024/03/10 09:31:57;;;;;;;23.30;19.50;;;;;;;9.92;100.00;98144.70;108921;1260;64882;-71
2024/03/10 09:34:24;;;;;;;23.80;19.30;;;;;;;10.00;100.00;98136.23;108911;1260;59119;-72
2024/03/10 09:36:51;;;;;;;22.20;18.60;;;;;;;10.09;100.00;98134.48;108892;1260;64907;-71
2024/03/10 09:39:18;;;;;;;22.50;18.20;;;;;;;10.15;100.00;98134.75;108920;1260;59004;-72
2024/03/10 09:41:47;;;;;;;24.70;19.80;;;;;;;10.19;100.00;98128.35;108927;1260;59054;-72
2024/03/10 09:44:22;;;;;;;24.90;20.50;;;;;;;10.29;100.00;98125.83;108808;1260;135094;-72
2024/03/10 09:46:49;;;;;;;21.10;18.80;;;;;;;10.47;100.00;98124.70;108921;1260;60152;-72
2024/03/10 09:49:17;;;;;;;21.70;19.00;;;;;;;10.63;100.00;98119.40;108883;1260;62931;-72
2024/03/10 09:51:45;;;;;;;25.70;20.20;;;;;;;10.78;100.00;98118.36;108881;1259;58995;-72
2024/03/10 09:54:12;;;;;;;22.50;18.40;;;;;;;10.99;100.00;98112.02;108892;1260;59149;-71
2024/03/10 09:56:41;;;;;;;20.10;18.00;;;;;;;11.28;100.00;98111.87;108902;1260;64633;-72
2024/03/10 09:59:18;;;;;;;21.20;17.90;;;;;;;11.59;100.00;98106.71;108908;1260;60593;-73
2024/03/10 10:01:46;;;;;;;22.30;18.90;;;;;;;11.87;100.00;98108.80;108887;1260;62851;-73
2024/03/10 10:04:15;;;;;;;22.40;18.30;;;;;;;12.05;100.00;98103.36;108892;1260;58967;-73
2024/03/10 10:06:44;;;;;;;19.90;17.80;;;;;;;12.17;100.00;98100.02;108909;1260;59009;-72
2024/03/10 10:09:11;;;;;;;20.40;17.20;;;;;;;12.25;100.00;98094.26;108892;1260;66061;-73
2024/03/10 10:11:38;;;;;;;20.10;17.40;;;;;;;12.31;100.00;98091.48;108906;1260;59955;-73
2024/03/10 10:14:10;;;;;;;21.20;16.80;;;;;;;12.43;100.00;98099.48;108874;1260;62988;-73
2024/03/10 10:16:37;;;;;;;20.00;17.30;;;;;;;12.58;100.00;98099.19;108894;1260;58951;-73
2024/03/10 10:19:07;;;;;;;22.30;17.60;;;;;;;12.70;100.00;98098.84;108886;1260;59425;-73
2024/03/10 10:21:38;;;;;;;21.30;18.00;;;;;;;12.80;100.00;98097.26;108883;1260;66100;-71
2024/03/10 10:24:09;;;;;;;18.80;16.00;;;;;;;12.87;100.00;98095.05;108770;1260;60607;-71
2024/03/10 10:26:36;;;;;;;17.60;15.10;;;;;;;12.93;100.00;98086.63;108879;1260;64088;-72
2024/03/10 10:29:10;;;;;;;19.10;17.10;;;;;;;12.96;100.00;98082.21;108887;1260;59125;-72
2024/03/10 10:31:37;;;;;;;17.10;15.30;;;;;;;13.02;100.00;98078.90;108889;1260;59064;-72
2024/03/10 10:34:05;;;;;;;17.60;15.30;;;;;;;13.05;100.00;98075.84;108907;1260;66099;-72
2024/03/10 10:36:35;;;;;;;18.90;14.90;;;;;;;13.09;100.00;98073.56;108921;1260;58955;-72
2024/03/10 10:39:08;;;;;;;18.10;15.10;;;;;;;13.26;100.00;98076.08;108894;1260;64047;-72
2024/03/10 10:41:38;;;;;;;15.30;13.40;;;;;;;13.39;100.00;98077.23;108729;1260;59409;-72
2024/03/10 10:44:05;;;;;;;15.60;13.90;;;;;;;13.45;100.00;98073.67;108932;1260;58993;-73
2024/03/10 10:46:36;;;;;;;15.00;13.40;;;;;;;13.53;100.00;98073.10;108885;1260;65747;-71
2024/03/10 10:49:04;;;;;;;15.60;14.00;;;;;;;13.73;100.00;98071.56;108938;1260;59494;-71
2024/03/10 10:51:34;;;;;;;15.60;13.70;;;;;;;13.94;100.00;98075.04;108915;1260;62846;-71
2024/03/10 10:54:09;;;;;;;14.60;12.70;;;;;;;14.05;100.00;98076.33;108890;1260;58986;-73
2024/03/10 10:56:35;;;;;;;15.20;13.60;;;;;;;14.15;100.00;98078.20;108916;1260;59058;-73
2024/03/10 10:59:02;;;;;;;14.00;12.60;;;;;;;14.20;100.00;98080.47;108922;1260;66095;-72
2024/03/10 11:01:29;;;;;;;15.10;12.20;;;;;;;14.18;100.00;98074.89;108916;1264;60224;-71
2024/03/10 11:03:57;;;;;;;14.60;12.50;;;;;;;14.13;100.00;98070.90;108888;1260;63730;-72
2024/03/10 11:06:27;;;;;;;18.50;16.00;;;;;;;14.15;100.00;98075.02;108881;1260;58963;-72
2024/03/10 11:08:55;;;;;;;12.30;11.00;;;;;;;14.17;100.00;98072.73;108658;1264;59068;-72
2024/03/10 11:11:45;;;;;;;12.70;11.40;;;;;;;14.16;100.00;98067.86;108686;1266;64860;-73
2024/03/10 11:14:16;;;;;;;22.00;17.50;;;;;;;14.22;100.00;98061.91;108683;1264;61048;-72
2024/03/10 11:16:43;;;;;;;20.60;17.70;;;;;;;14.29;100.00;98054.34;108693;1265;63892;-72
2024/03/10 11:19:24;;;;;;;13.70;11.90;;;;;;;14.36;100.00;98056.04;108691;1264;59113;-73
2024/03/10 11:21:51;;;;;;;13.80;11.80;;;;;;;14.37;100.00;98058.80;108598;1265;59457;-71
2024/03/10 11:24:21;;;;;;;12.90;11.30;;;;;;;14.33;100.00;98059.69;108660;1266;66061;-72
2024/03/10 11:27:08;;;;;;;14.00;11.90;;;;;;;14.27;100.00;98051.92;108690;1265;59921;-72
2024/03/10 11:29:37;;;;;;;11.90;10.70;;;;;;;14.30;100.00;98049.27;108642;1264;65236;-72
2024/03/10 11:32:33;;;;;;;13.30;11.20;;;;;;;14.33;99.14;98048.27;108252;1264;58988;-73
2024/03/10 11:35:06;;;;;;;13.10;11.70;;;;;;;14.35;98.02;98042.70;108711;1264;58857;-81